Time;durP1;ratioP1;P1;durP2;ratioP2;P2;SDS_P1;SDS_P2;PMS_P1;PMS_P2;Temp;Humidity;BMP_temperature;BMP_pressure;BME280_temperature;BME280_humidity;BME280_pressure;Samples;Min_cycle;Max_cycle;Signal;HPM_P1;HPM_P2
2021/12/30 00:01:28;;;;;;;1.75;1.65;;;6.40;99.90;;;;;;5084316;28;20947;-57
2021/12/30 00:04:07;;;;;;;1.50;1.40;;;6.40;99.90;;;;;;5084409;28;20652;-57
2021/12/30 00:06:47;;;;;;;2.25;2.15;;;6.40;99.90;;;;;;5145267;27;20662;-57
2021/12/30 00:09:28;;;;;;;2.55;2.35;;;6.50;99.90;;;;;;5104859;27;20996;-57
2021/12/30 00:12:09;;;;;;;2.25;2.15;;;6.40;99.90;;;;;;5100411;27;21201;-57
2021/12/30 00:14:48;;;;;;;2.30;2.20;;;6.40;99.90;;;;;;5104077;27;20545;-58
2021/12/30 00:17:28;;;;;;;2.20;2.10;;;6.40;99.90;;;;;;5105696;27;20662;-57
2021/12/30 00:20:09;;;;;;;2.45;2.35;;;6.50;99.90;;;;;;5084679;28;20668;-57
2021/12/30 00:22:49;;;;;;;2.22;2.13;;;6.40;99.90;;;;;;5084657;28;20566;-57
2021/12/30 00:25:37;;;;;;;2.70;2.50;;;6.40;99.90;;;;;;5083431;27;20549;-57
2021/12/30 00:28:18;;;;;;;2.45;2.35;;;6.50;99.90;;;;;;5146830;27;20653;-57
2021/12/30 00:30:58;;;;;;;2.95;2.55;;;6.50;99.90;;;;;;5085046;27;20891;-57
2021/12/30 00:33:38;;;;;;;2.55;2.35;;;6.50;99.90;;;;;;5064910;28;20694;-57
2021/12/30 00:36:18;;;;;;;2.40;2.30;;;6.50;99.90;;;;;;5103193;27;20685;-57
2021/12/30 00:38:58;;;;;;;2.90;2.70;;;6.50;99.90;;;;;;5084419;28;20663;-57
2021/12/30 00:41:38;;;;;;;2.55;2.42;;;6.50;99.90;;;;;;5084226;27;20559;-58
2021/12/30 00:44:17;;;;;;;2.80;2.67;;;6.50;99.90;;;;;;5140990;27;21213;-57
2021/12/30 00:46:59;;;;;;;2.88;2.70;;;6.50;99.90;;;;;;5083887;27;21084;-57
2021/12/30 00:49:39;;;;;;;2.95;2.75;;;6.50;99.90;;;;;;5082318;28;20683;-57
2021/12/30 00:52:19;;;;;;;3.40;3.17;;;6.60;99.90;;;;;;5077994;28;21220;-57
2021/12/30 00:54:58;;;;;;;3.72;3.53;;;6.50;99.90;;;;;;5083991;27;21060;-57
2021/12/30 00:57:38;;;;;;;3.33;3.13;;;6.60;99.90;;;;;;5085709;28;20539;-57
2021/12/30 01:00:20;;;;;;;3.25;3.05;;;6.60;99.90;;;;;;5105798;27;20537;-57
2021/12/30 01:02:59;;;;;;;3.78;3.58;;;6.50;99.90;;;;;;5084942;28;20671;-57
2021/12/30 01:05:39;;;;;;;3.40;3.20;;;6.50;99.90;;;;;;5083938;27;20555;-57
2021/12/30 01:08:19;;;;;;;3.55;3.35;;;6.60;99.90;;;;;;5084748;28;20613;-57
2021/12/30 01:11:01;;;;;;;3.97;3.67;;;6.60;99.90;;;;;;5145730;27;20933;-57
2021/12/30 01:13:45;;;;;;;3.58;3.38;;;6.60;99.90;;;;;;5104875;27;20564;-58
2021/12/30 01:16:24;;;;;;;2.78;2.65;;;6.60;99.90;;;;;;5083791;27;20543;-57
2021/12/30 01:19:21;;;;;;;3.13;2.92;;;6.60;99.90;;;;;;5105481;27;20653;-58
2021/12/30 01:22:01;;;;;;;3.45;3.22;;;6.60;99.90;;;;;;5084562;28;20663;-57
2021/12/30 01:24:41;;;;;;;3.50;3.30;;;6.70;99.90;;;;;;5074424;28;21035;-57
2021/12/30 01:27:21;;;;;;;3.50;3.30;;;6.70;99.90;;;;;;5104453;27;21066;-57
2021/12/30 01:30:02;;;;;;;3.35;3.13;;;6.70;99.90;;;;;;5114793;27;20951;-57
2021/12/30 01:32:42;;;;;;;3.80;3.60;;;6.70;99.90;;;;;;5076761;27;20612;-57
2021/12/30 01:35:25;;;;;;;3.03;2.83;;;6.80;99.90;;;;;;5083076;28;20684;-57
2021/12/30 01:38:08;;;;;;;2.75;2.55;;;6.80;99.90;;;;;;5082876;28;21076;-57
2021/12/30 01:40:51;;;;;;;3.17;2.97;;;6.80;99.90;;;;;;5104660;27;21182;-57
2021/12/30 01:43:33;;;;;;;3.80;3.50;;;6.90;99.90;;;;;;5082188;27;20603;-57
2021/12/30 01:46:12;;;;;;;3.75;3.38;;;6.90;99.90;;;;;;5083182;28;20543;-57
2021/12/30 01:48:52;;;;;;;3.08;2.88;;;6.90;99.90;;;;;;5133949;27;20661;-57
2021/12/30 01:51:31;;;;;;;3.45;3.20;;;6.90;99.90;;;;;;5084835;27;20575;-57
2021/12/30 01:54:12;;;;;;;3.35;3.15;;;6.90;99.90;;;;;;5141300;27;20687;-57
2021/12/30 01:56:52;;;;;;;5.32;3.00;;;6.90;99.90;;;;;;5074258;28;20701;-57
2021/12/30 01:59:31;;;;;;;2.55;2.45;;;6.90;99.90;;;;;;5084700;27;20543;-57
2021/12/30 02:02:26;;;;;;;2.75;2.58;;;7.00;99.90;;;;;;5083051;27;20907;-57
2021/12/30 02:05:06;;;;;;;2.88;2.67;;;6.90;99.90;;;;;;5081927;27;21060;-57
2021/12/30 02:07:45;;;;;;;2.70;2.50;;;7.00;99.90;;;;;;5084759;28;20668;-57
2021/12/30 02:10:25;;;;;;;1.92;1.83;;;7.10;99.90;;;;;;5098527;27;20680;-57
2021/12/30 02:13:05;;;;;;;2.10;2.00;;;7.10;99.90;;;;;;5082717;27;20555;-57
2021/12/30 02:15:44;;;;;;;2.13;2.03;;;7.10;99.90;;;;;;5102701;27;21179;-57
2021/12/30 02:18:24;;;;;;;3.05;2.85;;;7.20;99.90;;;;;;5081103;28;20694;-57
2021/12/30 02:21:05;;;;;;;2.70;2.50;;;7.20;99.90;;;;;;5096526;27;20674;-57
2021/12/30 02:23:44;;;;;;;3.33;2.80;;;7.20;99.90;;;;;;5041803;27;20578;-57
2021/12/30 02:26:24;;;;;;;2.60;2.50;;;7.20;99.90;;;;;;5083154;27;20543;-57
2021/12/30 02:29:04;;;;;;;3.13;2.92;;;7.30;99.90;;;;;;5083685;28;21031;-57
2021/12/30 02:31:43;;;;;;;2.85;2.65;;;7.30;99.90;;;;;;5140711;27;20684;-57
2021/12/30 02:34:23;;;;;;;3.13;2.92;;;7.30;99.90;;;;;;5083596;27;20548;-57
2021/12/30 02:37:03;;;;;;;3.45;3.25;;;7.30;99.90;;;;;;5080490;28;20699;-57
2021/12/30 02:39:47;;;;;;;3.88;3.20;;;7.30;99.90;;;;;;5123742;27;20958;-57
2021/12/30 02:42:26;;;;;;;3.60;3.40;;;7.40;99.90;;;;;;5083740;28;20684;-57
2021/12/30 02:45:07;;;;;;;3.90;3.60;;;7.40;99.90;;;;;;5073386;28;21039;-57
2021/12/30 02:47:45;;;;;;;3.60;3.40;;;7.40;99.90;;;;;;5123879;27;20535;-57
2021/12/30 02:50:25;;;;;;;4.00;3.70;;;7.40;99.90;;;;;;5083079;28;20683;-57
2021/12/30 02:53:05;;;;;;;2.88;2.67;;;7.40;99.90;;;;;;5136297;27;20680;-57
2021/12/30 02:55:46;;;;;;;3.60;3.40;;;7.50;99.90;;;;;;5083432;27;20547;-57
2021/12/30 02:58:26;;;;;;;3.28;3.08;;;7.50;99.90;;;;;;5084610;28;21034;-57
2021/12/30 03:01:08;;;;;;;3.42;3.22;;;7.60;99.90;;;;;;5084719;27;20700;-57
2021/12/30 03:03:48;;;;;;;4.03;3.72;;;7.60;99.90;;;;;;5125023;27;20552;-57
2021/12/30 03:06:28;;;;;;;4.43;4.13;;;7.60;99.90;;;;;;5083561;27;20557;-57
2021/12/30 03:09:07;;;;;;;5.00;4.38;;;7.60;99.90;;;;;;5084921;28;20707;-57
2021/12/30 03:11:47;;;;;;;3.50;3.30;;;7.70;99.90;;;;;;5084727;27;20540;-57
2021/12/30 03:14:28;;;;;;;3.65;3.35;;;7.80;99.90;;;;;;5104260;27;21083;-57
2021/12/30 03:17:09;;;;;;;3.58;3.38;;;7.80;99.90;;;;;;5084167;27;20535;-57
2021/12/30 03:19:48;;;;;;;3.08;2.88;;;7.90;99.90;;;;;;5084473;27;20567;-57
2021/12/30 03:22:28;;;;;;;3.90;3.60;;;8.00;99.90;;;;;;5145999;27;20681;-57
2021/12/30 03:25:10;;;;;;;4.22;3.83;;;8.00;99.90;;;;;;5123967;27;20532;-57
2021/12/30 03:27:49;;;;;;;3.90;3.70;;;8.00;99.90;;;;;;5105142;27;20549;-57
2021/12/30 03:30:29;;;;;;;4.38;4.07;;;7.90;99.90;;;;;;5084587;28;20675;-57
2021/12/30 03:33:09;;;;;;;2.83;2.65;;;7.90;99.90;;;;;;5084572;28;21026;-57
2021/12/30 03:35:49;;;;;;;3.53;3.20;;;7.90;99.90;;;;;;5083250;27;21068;-57
2021/12/30 03:38:30;;;;;;;3.30;3.00;;;7.90;99.90;;;;;;5084957;28;20761;-57
2021/12/30 03:41:11;;;;;;;2.92;2.72;;;7.90;99.90;;;;;;5084333;28;20668;-57
2021/12/30 03:43:50;;;;;;;3.33;3.13;;;7.90;99.90;;;;;;5082007;27;21158;-57
2021/12/30 03:46:31;;;;;;;5.47;2.80;;;7.90;99.90;;;;;;5083275;27;20553;-57
2021/12/30 03:49:10;;;;;;;3.25;2.92;;;8.00;99.90;;;;;;5080037;28;20689;-57
2021/12/30 03:51:52;;;;;;;3.00;2.80;;;8.10;99.90;;;;;;5112463;27;20625;-57
2021/12/30 03:54:31;;;;;;;2.80;2.60;;;8.10;99.90;;;;;;5083084;27;21134;-57
2021/12/30 03:57:10;;;;;;;2.90;2.70;;;8.30;99.90;;;;;;5104498;27;20549;-57
2021/12/30 03:59:50;;;;;;;3.08;2.85;;;8.40;99.90;;;;;;5105071;27;20530;-57
2021/12/30 04:02:30;;;;;;;2.38;2.20;;;8.40;99.90;;;;;;5084416;28;20692;-57
2021/12/30 04:05:11;;;;;;;2.53;2.35;;;8.50;99.90;;;;;;5083533;27;20671;-57
2021/12/30 04:07:50;;;;;;;4.07;2.92;;;8.40;99.90;;;;;;5084922;27;20535;-57
2021/12/30 04:10:30;;;;;;;4.65;4.25;;;8.40;99.90;;;;;;5146630;27;20542;-57
2021/12/30 04:13:09;;;;;;;4.20;3.15;;;8.30;99.90;;;;;;5084815;27;20567;-57
2021/12/30 04:15:49;;;;;;;2.80;2.45;;;8.30;99.90;;;;;;5083758;28;21026;-58
2021/12/30 04:18:29;;;;;;;3.47;3.17;;;8.30;99.90;;;;;;5084548;27;20914;-57
2021/12/30 04:21:09;;;;;;;4.20;3.17;;;8.30;99.90;;;;;;5084578;28;20699;-57
2021/12/30 04:23:49;;;;;;;3.03;2.83;;;8.40;99.90;;;;;;5157055;27;20977;-57
2021/12/30 04:26:29;;;;;;;4.38;3.42;;;8.40;99.90;;;;;;5145230;27;20653;-57
2021/12/30 04:29:08;;;;;;;5.95;3.72;;;8.30;99.90;;;;;;5084342;27;20535;-57
2021/12/30 04:31:49;;;;;;;3.60;3.30;;;8.30;99.90;;;;;;5146177;27;20535;-57
2021/12/30 04:34:28;;;;;;;5.70;3.10;;;8.40;99.90;;;;;;5083648;27;20548;-57
2021/12/30 04:37:08;;;;;;;3.75;3.00;;;8.40;99.90;;;;;;5084212;27;20555;-57
2021/12/30 04:39:48;;;;;;;5.80;3.13;;;8.40;99.90;;;;;;5084843;27;20546;-57
2021/12/30 04:42:27;;;;;;;3.75;3.45;;;8.40;99.90;;;;;;5084612;28;20703;-57
2021/12/30 04:45:09;;;;;;;4.78;3.35;;;8.40;99.90;;;;;;5100635;27;20601;-57
2021/12/30 04:47:49;;;;;;;4.53;3.65;;;8.30;99.90;;;;;;5118051;27;20687;-55
2021/12/30 04:50:29;;;;;;;3.33;2.33;;;8.40;99.90;;;;;;5084165;28;20719;-57
2021/12/30 04:53:09;;;;;;;3.00;2.72;;;8.40;99.90;;;;;;5084551;27;20579;-57
2021/12/30 04:55:49;;;;;;;2.13;1.90;;;8.50;99.90;;;;;;5121584;27;20885;-57
2021/12/30 04:58:28;;;;;;;3.55;2.13;;;8.50;99.90;;;;;;5075260;28;20666;-56
2021/12/30 05:01:08;;;;;;;2.20;2.00;;;8.40;99.90;;;;;;5083692;28;20680;-57
2021/12/30 05:03:48;;;;;;;3.25;2.95;;;8.50;99.90;;;;;;5104463;27;20673;-57
2021/12/30 05:06:28;;;;;;;3.10;2.50;;;8.40;99.90;;;;;;5104655;27;21101;-57
2021/12/30 05:09:08;;;;;;;3.75;1.63;;;8.40;99.90;;;;;;5084838;28;20667;-57
2021/12/30 05:11:47;;;;;;;3.85;2.40;;;8.50;99.90;;;;;;5085153;27;20729;-57
2021/12/30 05:14:27;;;;;;;6.75;2.80;;;8.50;99.90;;;;;;5083582;28;20664;-57
2021/12/30 05:17:07;;;;;;;2.80;2.22;;;8.50;99.90;;;;;;5084767;28;20667;-57
2021/12/30 05:19:47;;;;;;;4.63;3.35;;;8.50;99.90;;;;;;5084993;28;21019;-57
2021/12/30 05:22:26;;;;;;;4.28;3.92;;;8.40;99.90;;;;;;5085061;28;20558;-57
2021/12/30 05:25:08;;;;;;;5.13;4.68;;;8.30;99.90;;;;;;5104292;27;20538;-57
2021/12/30 05:27:49;;;;;;;4.60;4.20;;;8.20;99.90;;;;;;5078639;28;21026;-57
2021/12/30 05:30:29;;;;;;;7.40;5.68;;;8.30;99.90;;;;;;5084144;27;20548;-57
2021/12/30 05:33:09;;;;;;;7.82;7.03;;;8.30;99.90;;;;;;5083206;27;20556;-57
2021/12/30 05:35:49;;;;;;;6.28;5.72;;;8.20;99.90;;;;;;5118241;27;21061;-57
2021/12/30 05:38:29;;;;;;;7.85;7.07;;;8.20;99.90;;;;;;5145933;27;20542;-57
2021/12/30 05:41:09;;;;;;;7.13;6.43;;;8.20;99.90;;;;;;5084429;27;20539;-57
2021/12/30 05:43:48;;;;;;;4.93;4.53;;;8.10;99.90;;;;;;5123036;27;20552;-57
2021/12/30 05:46:29;;;;;;;5.82;3.10;;;8.00;99.90;;;;;;5083409;28;20680;-57
2021/12/30 05:49:08;;;;;;;2.70;2.50;;;8.00;99.90;;;;;;5083750;27;20573;-57
2021/12/30 05:51:48;;;;;;;2.58;2.38;;;7.90;99.90;;;;;;5133355;27;21196;-57
2021/12/30 05:54:28;;;;;;;2.45;2.08;;;7.80;99.90;;;;;;5083443;28;20535;-57
2021/12/30 05:57:08;;;;;;;1.77;1.65;;;7.90;99.90;;;;;;5084361;27;20539;-57
2021/12/30 05:59:47;;;;;;;2.38;2.17;;;7.90;99.90;;;;;;5084418;28;20668;-57
2021/12/30 06:02:27;;;;;;;4.20;1.95;;;7.90;99.90;;;;;;5124411;27;21025;-57
2021/12/30 06:05:08;;;;;;;6.18;2.85;;;7.90;99.90;;;;;;5083101;28;21209;-57
2021/12/30 06:07:48;;;;;;;4.97;2.80;;;7.90;99.90;;;;;;5125006;27;20540;-57
2021/12/30 06:10:43;;;;;;;3.20;2.85;;;7.80;99.90;;;;;;5104516;27;20534;-57
2021/12/30 06:13:23;;;;;;;4.10;2.72;;;7.80;99.90;;;;;;5146472;27;20547;-57
2021/12/30 06:16:03;;;;;;;7.70;2.85;;;7.80;99.90;;;;;;5083650;27;20542;-57
2021/12/30 06:18:43;;;;;;;3.78;3.38;;;7.80;99.90;;;;;;5084855;28;20540;-57
2021/12/30 06:21:22;;;;;;;4.03;2.63;;;7.90;99.90;;;;;;5084493;28;20667;-57
2021/12/30 06:24:02;;;;;;;5.18;3.28;;;7.80;99.90;;;;;;5105457;27;20550;-57
2021/12/30 06:26:42;;;;;;;2.60;2.40;;;7.70;99.90;;;;;;5145456;27;20649;-57
2021/12/30 06:29:22;;;;;;;7.13;2.65;;;7.60;99.90;;;;;;5084305;28;20664;-57
2021/12/30 06:32:02;;;;;;;2.00;1.60;;;7.60;99.90;;;;;;5084689;28;20695;-57
2021/12/30 06:34:42;;;;;;;2.38;2.00;;;7.50;99.90;;;;;;5083992;28;21083;-57
2021/12/30 06:37:21;;;;;;;4.15;2.30;;;7.60;99.90;;;;;;5104273;27;20676;-57
2021/12/30 06:40:02;;;;;;;3.67;2.78;;;7.70;99.90;;;;;;5083813;27;20546;-57
2021/12/30 06:42:43;;;;;;;3.97;2.78;;;7.80;99.90;;;;;;5079975;28;20694;-57
2021/12/30 06:45:23;;;;;;;3.10;2.17;;;7.80;99.90;;;;;;5083554;27;21135;-58
2021/12/30 06:48:05;;;;;;;3.15;1.52;;;7.90;99.90;;;;;;5125624;27;20666;-57
2021/12/30 06:50:51;;;;;;;4.60;2.53;;;7.90;99.90;;;;;;5145571;27;20530;-57
2021/12/30 06:53:30;;;;;;;5.10;2.47;;;7.90;99.90;;;;;;5108777;27;20584;-57
2021/12/30 06:56:10;;;;;;;4.70;3.22;;;7.90;99.90;;;;;;5124584;27;21245;-57
2021/12/30 06:58:50;;;;;;;4.50;1.60;;;7.90;99.90;;;;;;5144389;27;20692;-57
2021/12/30 07:01:31;;;;;;;2.55;1.42;;;7.90;99.90;;;;;;5126480;27;20560;-57
2021/12/30 07:04:11;;;;;;;1.98;1.48;;;7.80;99.90;;;;;;5101439;27;20606;-57
2021/12/30 07:06:52;;;;;;;5.00;1.45;;;7.90;99.90;;;;;;5078147;28;20612;-58
2021/12/30 07:09:33;;;;;;;3.70;2.05;;;7.80;99.90;;;;;;5083371;27;20539;-57
2021/12/30 07:12:12;;;;;;;2.80;2.25;;;7.80;99.90;;;;;;5073046;28;20709;-57
2021/12/30 07:14:52;;;;;;;2.22;1.55;;;7.80;99.90;;;;;;5080247;28;21213;-57
2021/12/30 07:17:32;;;;;;;2.92;1.98;;;7.80;99.90;;;;;;5127631;27;20691;-57
2021/12/30 07:20:13;;;;;;;2.22;1.50;;;7.90;99.90;;;;;;5124245;27;20532;-57
2021/12/30 07:22:53;;;;;;;4.20;1.60;;;7.90;99.90;;;;;;5078913;28;21065;-57
2021/12/30 07:25:33;;;;;;;2.03;1.80;;;8.00;99.90;;;;;;5142462;27;20538;-57
2021/12/30 07:28:13;;;;;;;4.13;2.28;;;8.10;99.90;;;;;;5083480;28;20535;-57
2021/12/30 07:30:52;;;;;;;4.32;2.35;;;8.20;99.90;;;;;;5124409;27;20528;-57
2021/12/30 07:33:32;;;;;;;4.47;2.60;;;8.10;99.90;;;;;;5087354;27;20703;-57
2021/12/30 07:36:12;;;;;;;6.93;3.05;;;8.10;99.90;;;;;;5121804;27;22662;-57
2021/12/30 07:38:52;;;;;;;6.60;3.30;;;8.10;99.90;;;;;;5077782;28;20671;-58
2021/12/30 07:41:32;;;;;;;9.27;3.65;;;8.20;99.90;;;;;;5063390;28;20697;-58
2021/12/30 07:44:11;;;;;;;6.22;4.03;;;8.20;99.90;;;;;;5113199;27;20561;-57
2021/12/30 07:46:51;;;;;;;4.95;3.55;;;8.20;99.90;;;;;;5103012;27;20941;-58
2021/12/30 07:49:32;;;;;;;6.75;3.40;;;8.20;99.90;;;;;;5102988;27;20902;-58
2021/12/30 07:52:11;;;;;;;6.13;2.97;;;8.20;99.90;;;;;;5141628;27;20554;-57
2021/12/30 07:54:51;;;;;;;4.45;2.33;;;8.20;99.90;;;;;;5115579;22;20585;-57
2021/12/30 07:57:31;;;;;;;10.82;3.50;;;8.40;99.90;;;;;;5066689;28;20546;-57
2021/12/30 08:00:17;;;;;;;8.57;4.28;;;8.40;99.90;;;;;;5083245;27;21035;-58
2021/12/30 08:02:57;;;;;;;8.30;3.00;;;8.40;99.90;;;;;;5086621;27;20554;-56
2021/12/30 08:05:36;;;;;;;6.07;4.88;;;8.50;99.90;;;;;;5074493;28;20707;-57
2021/12/30 08:08:17;;;;;;;4.90;2.90;;;8.60;99.90;;;;;;5076788;27;21205;-56
2021/12/30 08:10:58;;;;;;;4.95;3.83;;;8.70;99.90;;;;;;5080562;27;20568;-58
2021/12/30 08:13:38;;;;;;;8.18;3.75;;;8.80;99.90;;;;;;5143633;27;20548;-57
2021/12/30 08:16:17;;;;;;;12.63;3.85;;;8.80;99.90;;;;;;5101205;27;20577;-58
2021/12/30 08:18:57;;;;;;;4.10;3.13;;;8.80;99.90;;;;;;5096812;27;20673;-58
2021/12/30 08:21:41;;;;;;;4.05;2.90;;;8.90;99.90;;;;;;5136549;27;20685;-57
2021/12/30 08:24:21;;;;;;;6.72;2.33;;;8.90;99.90;;;;;;5075467;28;20690;-56
2021/12/30 08:27:00;;;;;;;2.63;2.20;;;9.10;99.90;;;;;;5081946;27;20556;-57
2021/12/30 08:29:40;;;;;;;6.82;3.08;;;9.10;99.90;;;;;;5103251;27;20961;-57
2021/12/30 08:32:20;;;;;;;6.30;2.75;;;9.20;99.90;;;;;;5084447;27;20621;-57
2021/12/30 08:34:59;;;;;;;8.93;3.78;;;9.20;99.90;;;;;;5090997;27;20695;-58
2021/12/30 08:37:39;;;;;;;11.10;9.57;;;9.30;99.90;;;;;;5124791;27;20680;-57
2021/12/30 08:40:19;;;;;;;11.00;5.05;;;9.40;99.90;;;;;;5109012;27;20647;-57
2021/12/30 08:42:59;;;;;;;7.10;4.70;;;9.40;99.90;;;;;;5054265;27;20737;-57
2021/12/30 08:45:39;;;;;;;7.22;4.47;;;9.50;99.90;;;;;;5061178;27;20575;-57
2021/12/30 08:48:19;;;;;;;7.53;5.53;;;9.50;99.90;;;;;;5103803;27;20862;-57
2021/12/30 08:50:58;;;;;;;7.88;6.00;;;9.40;99.90;;;;;;5128057;27;20671;-57
2021/12/30 08:53:40;;;;;;;11.13;5.60;;;9.40;99.90;;;;;;5077365;27;20696;-57
2021/12/30 08:56:20;;;;;;;8.45;5.93;;;9.40;99.90;;;;;;5122322;27;20555;-57
2021/12/30 08:58:59;;;;;;;13.38;7.13;;;9.50;99.90;;;;;;5112550;27;20560;-57
2021/12/30 09:01:39;;;;;;;10.73;4.53;;;9.50;99.90;;;;;;5103047;27;20673;-57
2021/12/30 09:04:19;;;;;;;11.57;5.80;;;9.50;99.90;;;;;;5073771;28;20733;-57
2021/12/30 09:07:00;;;;;;;11.75;6.07;;;9.60;99.90;;;;;;5073009;28;20746;-57
2021/12/30 09:09:39;;;;;;;11.48;5.32;;;9.60;99.90;;;;;;5130184;27;20543;-57
2021/12/30 09:12:21;;;;;;;4.90;3.15;;;9.70;99.90;;;;;;5080273;27;20564;-57
2021/12/30 09:15:00;;;;;;;8.85;4.43;;;9.70;99.90;;;;;;5103163;27;21113;-57
2021/12/30 09:17:41;;;;;;;10.52;4.20;;;9.70;99.90;;;;;;5080783;27;20552;-57
2021/12/30 09:20:32;;;;;;;8.18;5.70;;;9.80;99.90;;;;;;5102636;27;20971;-57
2021/12/30 09:23:14;;;;;;;10.50;4.13;;;9.80;99.90;;;;;;5081764;27;20672;-57
2021/12/30 09:25:56;;;;;;;10.10;3.55;;;9.80;99.90;;;;;;5082389;27;20539;-57
2021/12/30 09:28:37;;;;;;;4.20;3.20;;;9.80;99.90;;;;;;5121834;27;20961;-57
2021/12/30 09:31:17;;;;;;;5.30;2.92;;;10.00;99.90;;;;;;5083089;28;20675;-56
2021/12/30 09:33:58;;;;;;;5.70;3.08;;;10.00;99.90;;;;;;5152202;27;20669;-57
2021/12/30 09:36:37;;;;;;;3.85;3.45;;;10.10;99.90;;;;;;5103107;27;20674;-57
2021/12/30 09:39:17;;;;;;;4.60;3.22;;;10.10;99.90;;;;;;5104977;27;21190;-57
2021/12/30 09:41:56;;;;;;;7.03;4.65;;;10.10;99.90;;;;;;5105245;27;20654;-57
2021/12/30 09:44:36;;;;;;;5.28;3.67;;;10.20;99.90;;;;;;5104347;27;20682;-57
2021/12/30 09:47:16;;;;;;;4.22;3.10;;;10.30;99.90;;;;;;5084501;27;20549;-57
2021/12/30 09:49:56;;;;;;;3.97;2.60;;;10.30;99.90;;;;;;5146509;27;20951;-57
2021/12/30 09:52:36;;;;;;;3.42;2.72;;;10.40;99.90;;;;;;5084812;27;20527;-57
2021/12/30 09:55:16;;;;;;;2.13;1.40;;;10.60;99.90;;;;;;5083980;27;20672;-57
2021/12/30 09:57:56;;;;;;;2.13;1.75;;;10.70;99.90;;;;;;5104318;27;20662;-57
2021/12/30 10:00:36;;;;;;;2.58;1.58;;;10.70;99.90;;;;;;5102170;27;20662;-57
2021/12/30 10:03:15;;;;;;;2.42;1.33;;;10.80;99.90;;;;;;5080435;27;20695;-57
2021/12/30 10:06:06;;;;;;;4.20;1.73;;;10.90;99.90;;;;;;5103066;27;21034;-57
2021/12/30 10:08:55;;;;;;;3.35;2.20;;;11.00;99.90;;;;;;5083385;27;20557;-58
2021/12/30 10:11:44;;;;;;;1.60;1.50;;;11.10;99.90;;;;;;5147818;27;20546;-56
2021/12/30 10:14:33;;;;;;;2.45;2.28;;;11.20;99.90;;;;;;5103398;27;20686;-58
2021/12/30 10:17:18;;;;;;;1.75;1.63;;;11.30;99.90;;;;;;5101258;27;20701;-57
2021/12/30 10:20:16;;;;;;;2.92;1.48;;;11.50;99.90;;;;;;5097936;27;20597;-58
2021/12/30 10:23:12;;;;;;;1.92;1.63;;;11.60;99.90;;;;;;5082146;27;21154;-58
2021/12/30 10:25:53;;;;;;;2.00;1.80;;;11.70;99.90;;;;;;5119186;27;20723;-57
2021/12/30 10:28:36;;;;;;;2.33;2.13;;;11.60;99.90;;;;;;5136209;27;20653;-58
2021/12/30 10:31:22;;;;;;;6.68;5.82;;;11.60;99.90;;;;;;5102309;27;21205;-57
2021/12/30 10:34:05;;;;;;;2.63;2.42;;;11.60;99.90;;;;;;5076276;27;20685;-58
2021/12/30 10:36:47;;;;;;;2.22;2.13;;;11.70;99.90;;;;;;5100040;27;20669;-57
2021/12/30 10:39:29;;;;;;;1.30;1.20;;;11.80;99.90;;;;;;5113131;27;20683;-58
2021/12/30 10:42:21;;;;;;;1.60;1.48;;;11.90;99.90;;;;;;5088901;27;20584;-57
2021/12/30 10:45:04;;;;;;;2.25;1.77;;;12.00;99.90;;;;;;5129710;27;21204;-58
2021/12/30 10:47:54;;;;;;;2.55;1.75;;;12.10;99.90;;;;;;5079074;28;21218;-57
2021/12/30 10:50:33;;;;;;;2.70;1.95;;;12.30;99.90;;;;;;5103923;27;20674;-57
2021/12/30 10:53:13;;;;;;;2.20;2.10;;;12.50;99.90;;;;;;5083107;28;20679;-58
2021/12/30 10:55:52;;;;;;;2.70;2.50;;;12.50;99.90;;;;;;5083275;27;20551;-60
2021/12/30 10:58:32;;;;;;;5.30;2.42;;;12.40;99.90;;;;;;5084860;27;20543;-57
2021/12/30 11:01:17;;;;;;;2.53;2.05;;;12.30;99.90;;;;;;5083931;27;20559;-60
2021/12/30 11:03:58;;;;;;;3.22;2.55;;;12.10;99.90;;;;;;5099320;27;20675;-58
2021/12/30 11:06:39;;;;;;;2.30;1.70;;;12.00;99.90;;;;;;5083821;28;20676;-57
2021/12/30 11:09:21;;;;;;;1.70;1.60;;;12.00;99.90;;;;;;5105077;27;20606;-59
2021/12/30 11:12:04;;;;;;;3.08;2.85;;;11.90;99.90;;;;;;5126185;27;20531;-58
2021/12/30 11:14:44;;;;;;;3.33;2.88;;;12.00;99.90;;;;;;5104042;27;20710;-59
2021/12/30 11:17:32;;;;;;;3.35;2.90;;;12.00;99.90;;;;;;5104815;27;20677;-57
2021/12/30 11:20:15;;;;;;;2.92;2.70;;;12.00;99.90;;;;;;5104849;27;20686;-57
2021/12/30 11:22:55;;;;;;;2.75;2.55;;;12.00;99.90;;;;;;5084824;27;20535;-57
2021/12/30 11:25:35;;;;;;;2.80;2.60;;;12.00;99.90;;;;;;5098252;27;20689;-59
2021/12/30 11:28:15;;;;;;;2.70;2.50;;;12.00;99.90;;;;;;5119172;27;21096;-57
2021/12/30 11:30:54;;;;;;;2.65;2.45;;;11.90;99.90;;;;;;5095263;27;21027;-58
2021/12/30 11:33:34;;;;;;;2.70;2.13;;;11.90;99.90;;;;;;5083036;28;20861;-60
2021/12/30 11:36:16;;;;;;;2.67;2.47;;;11.90;99.90;;;;;;5082255;27;20561;-59
2021/12/30 11:38:57;;;;;;;3.25;2.13;;;11.90;99.90;;;;;;5104678;27;20662;-57
2021/12/30 11:41:37;;;;;;;2.15;1.95;;;11.80;99.90;;;;;;5084090;28;20668;-57
2021/12/30 11:44:39;;;;;;;3.33;2.42;;;11.90;99.90;;;;;;5076280;27;20602;-58
2021/12/30 11:47:38;;;;;;;3.42;3.13;;;12.00;99.90;;;;;;5096566;27;20682;-58
2021/12/30 11:50:30;;;;;;;2.88;2.45;;;12.00;99.90;;;;;;5101823;27;21515;-57
2021/12/30 11:53:12;;;;;;;3.47;2.53;;;12.10;99.90;;;;;;5091635;27;20559;-59
2021/12/30 11:56:00;;;;;;;1.73;1.60;;;12.10;99.90;;;;;;5132082;27;20560;-57
2021/12/30 11:58:52;;;;;;;1.13;1.02;;;12.10;99.90;;;;;;5061282;27;20698;-59
2021/12/30 12:01:35;;;;;;;1.20;1.13;;;12.20;99.90;;;;;;5140296;27;20681;-60
2021/12/30 12:04:18;;;;;;;1.85;1.75;;;12.20;99.90;;;;;;5074752;28;20701;-57
2021/12/30 12:07:03;;;;;;;1.95;1.85;;;12.30;99.90;;;;;;5080861;27;20559;-57
2021/12/30 12:09:43;;;;;;;1.58;1.58;;;12.40;99.90;;;;;;5102671;27;20885;-58
2021/12/30 12:12:35;;;;;;;2.67;2.30;;;12.50;99.90;;;;;;5093459;27;20740;-57
2021/12/30 12:15:14;;;;;;;1.77;1.67;;;12.40;99.90;;;;;;5067385;28;20686;-57
2021/12/30 12:18:11;;;;;;;2.17;2.00;;;12.50;99.90;;;;;;5111052;27;20612;-59
2021/12/30 12:20:54;;;;;;;3.60;3.40;;;12.50;99.90;;;;;;5155903;27;20927;-57
2021/12/30 12:23:34;;;;;;;2.78;2.00;;;12.50;99.90;;;;;;5081356;28;20695;-57
2021/12/30 12:26:18;;;;;;;2.25;2.13;;;12.50;99.90;;;;;;5123623;27;20884;-57
2021/12/30 12:29:23;;;;;;;2.92;2.40;;;12.50;99.90;;;;;;5114432;27;21509;-58
2021/12/30 12:32:07;;;;;;;3.70;3.17;;;12.60;99.90;;;;;;5082275;27;20575;-57
2021/12/30 12:34:50;;;;;;;3.67;3.40;;;12.70;99.90;;;;;;5070582;27;20560;-57
2021/12/30 12:37:52;;;;;;;3.40;3.20;;;12.70;99.90;;;;;;5083766;27;21080;-59
2021/12/30 12:40:38;;;;;;;3.22;2.92;;;12.60;99.90;;;;;;5117173;27;20681;-57
2021/12/30 12:43:26;;;;;;;3.65;3.35;;;12.60;99.90;;;;;;5103954;27;21199;-57
2021/12/30 12:46:06;;;;;;;5.32;4.93;;;12.60;99.90;;;;;;5114898;27;20566;-58
2021/12/30 12:48:54;;;;;;;2.90;2.70;;;12.70;99.90;;;;;;5116501;27;20635;-57
2021/12/30 12:51:36;;;;;;;2.50;2.30;;;12.60;99.90;;;;;;5104798;27;20673;-58
2021/12/30 12:54:32;;;;;;;4.75;4.35;;;12.70;99.90;;;;;;5075596;27;20549;-57
2021/12/30 12:57:13;;;;;;;4.30;4.00;;;12.70;99.90;;;;;;5080766;28;20682;-57
2021/12/30 12:59:53;;;;;;;6.05;5.65;;;12.70;99.90;;;;;;5097362;27;20986;-58
2021/12/30 13:02:32;;;;;;;4.07;3.78;;;12.80;99.90;;;;;;5083084;27;21046;-58
2021/12/30 13:05:15;;;;;;;4.00;3.40;;;12.90;99.90;;;;;;5067551;28;20678;-58
2021/12/30 13:07:57;;;;;;;4.32;4.03;;;12.80;99.90;;;;;;5082434;27;20664;-58
2021/12/30 13:10:40;;;;;;;4.47;4.18;;;12.80;99.90;;;;;;5115463;27;20546;-57
2021/12/30 13:13:30;;;;;;;5.22;4.82;;;12.70;99.90;;;;;;5103614;27;20619;-57
2021/12/30 13:16:23;;;;;;;4.68;4.25;;;12.60;99.90;;;;;;5101505;27;20869;-60
2021/12/30 13:19:07;;;;;;;4.03;3.78;;;12.50;99.90;;;;;;5149557;27;20535;-60
2021/12/30 13:21:54;;;;;;;3.22;2.83;;;12.50;99.90;;;;;;5081460;28;20672;-57
2021/12/30 13:24:44;;;;;;;4.20;3.70;;;12.50;99.90;;;;;;5155075;27;20580;-57
2021/12/30 13:27:27;;;;;;;3.72;3.42;;;12.50;99.90;;;;;;5144555;27;21062;-58
2021/12/30 13:30:09;;;;;;;3.63;3.33;;;12.50;99.90;;;;;;5081313;28;20543;-57
2021/12/30 13:32:50;;;;;;;5.55;5.15;;;12.50;99.90;;;;;;5083098;27;20559;-57
2021/12/30 13:35:32;;;;;;;5.43;5.03;;;12.50;99.90;;;;;;5105008;27;21107;-58
2021/12/30 13:38:11;;;;;;;3.20;3.00;;;12.50;99.90;;;;;;5082795;27;20675;-57
2021/12/30 13:40:51;;;;;;;4.07;3.53;;;12.40;99.90;;;;;;5083613;27;20584;-58
2021/12/30 13:43:31;;;;;;;3.92;3.63;;;12.50;99.90;;;;;;5102233;27;20542;-59
2021/12/30 13:46:11;;;;;;;4.85;4.55;;;12.50;99.90;;;;;;5083657;27;20547;-58
2021/12/30 13:48:52;;;;;;;4.18;3.88;;;12.50;99.90;;;;;;5125126;27;20556;-58
2021/12/30 13:51:32;;;;;;;5.68;5.18;;;12.50;99.90;;;;;;5084919;28;20660;-57
2021/12/30 13:54:11;;;;;;;5.53;5.00;;;12.40;99.90;;;;;;5084453;28;20687;-59
2021/12/30 13:56:51;;;;;;;6.75;5.97;;;12.40;99.90;;;;;;5084229;27;20691;-57
2021/12/30 13:59:32;;;;;;;6.57;6.05;;;12.40;99.90;;;;;;5084317;28;20707;-57
2021/12/30 14:02:13;;;;;;;5.95;5.55;;;12.40;99.90;;;;;;5104518;27;20545;-59
2021/12/30 14:05:03;;;;;;;5.43;5.03;;;12.40;99.90;;;;;;5105006;27;20681;-57
2021/12/30 14:07:45;;;;;;;6.32;5.82;;;12.40;99.90;;;;;;5084273;28;21209;-57